Time;durP1;ratioP1;P1;durP2;ratioP2;P2;SDS_P1;SDS_P2;PMS_P1;PMS_P2;Temp;Humidity;BMP_temperature;BMP_pressure;BME280_temperature;BME280_humidity;BME280_pressure;Samples;Min_cycle;Max_cycle;Signal;HPM_P1;HPM_P2
2023/04/06 00:01:25;;;;;;;8.53;7.83;;;2.60;1.00;;;;;;5073051;28;20162;-64
2023/04/06 00:03:51;;;;;;;10.77;9.07;;;2.40;1.00;;;;;;5073227;28;20691;-64
2023/04/06 00:06:16;;;;;;;8.63;7.77;;;2.30;99.90;;;;;;5072823;28;20239;-64
2023/04/06 00:08:42;;;;;;;9.63;8.83;;;2.20;1.00;;;;;;5073439;28;20170;-64
2023/04/06 00:11:08;;;;;;;12.07;9.07;;;2.10;1.00;;;;;;5072825;28;20307;-64
2023/04/06 00:13:34;;;;;;;10.37;9.43;;;2.10;1.00;;;;;;5073483;28;20170;-64
2023/04/06 00:16:00;;;;;;;9.80;8.97;;;2.00;1.00;;;;;;5073418;28;20197;-64
2023/04/06 00:18:26;;;;;;;8.97;8.30;;;1.90;1.00;;;;;;5073263;28;20637;-63
2023/04/06 00:20:52;;;;;;;10.73;9.60;;;1.90;1.00;;;;;;5073121;28;20215;-64
2023/04/06 00:23:17;;;;;;;9.17;8.57;;;1.80;1.00;;;;;;5072905;28;20639;-64
2023/04/06 00:25:43;;;;;;;10.00;9.23;;;1.80;1.00;;;;;;5072998;28;20209;-63
2023/04/06 00:28:08;;;;;;;11.40;9.70;;;1.70;1.00;;;;;;5072667;28;20193;-64
2023/04/06 00:30:34;;;;;;;10.13;9.23;;;1.70;1.00;;;;;;5072664;28;20166;-64
2023/04/06 00:33:00;;;;;;;9.40;8.70;;;1.60;1.00;;;;;;5072670;28;20178;-63
2023/04/06 00:35:26;;;;;;;10.37;9.57;;;1.60;9.50;;;;;;5071471;28;20259;-64
2023/04/06 00:37:51;;;;;;;11.10;10.10;;;1.50;26.30;;;;;;5072794;28;20262;-64
2023/04/06 00:40:17;;;;;;;14.73;9.87;;;1.50;48.40;;;;;;5071033;28;20227;-64
2023/04/06 00:42:43;;;;;;;17.17;10.03;;;1.50;77.30;;;;;;5071919;28;20182;-64
2023/04/06 00:45:10;;;;;;;11.20;9.83;;;1.60;92.90;;;;;;5072469;28;20229;-64
2023/04/06 00:47:35;;;;;;;9.77;8.87;;;1.60;96.60;;;;;;5072383;28;20237;-64
2023/04/06 00:50:01;;;;;;;10.53;9.57;;;1.60;96.50;;;;;;5072332;28;20579;-64
2023/04/06 00:52:27;;;;;;;11.70;8.90;;;1.60;98.70;;;;;;5070868;28;20174;-64
2023/04/06 00:54:52;;;;;;;11.43;10.20;;;1.60;99.00;;;;;;5072314;28;20221;-64
2023/04/06 00:57:19;;;;;;;9.67;8.97;;;1.60;1.00;;;;;;5072557;28;20202;-63
2023/04/06 00:59:45;;;;;;;10.67;9.57;;;1.60;1.00;;;;;;5072191;28;20182;-64
2023/04/06 01:02:11;;;;;;;11.10;9.97;;;1.60;1.00;;;;;;5072434;28;20205;-64
2023/04/06 01:04:36;;;;;;;11.83;10.77;;;1.50;99.90;;;;;;5071864;28;20241;-64
2023/04/06 01:07:02;;;;;;;14.10;10.87;;;1.50;8.50;;;;;;5072596;28;20194;-64
2023/04/06 01:09:31;;;;;;;11.87;10.80;;;1.50;1.00;;;;;;5071417;28;20190;-64
2023/04/06 01:11:58;;;;;;;10.87;9.97;;;1.50;99.90;;;;;;5072222;28;20245;-63
2023/04/06 01:14:24;;;;;;;13.90;10.43;;;1.50;1.00;;;;;;5071534;28;20570;-64
2023/04/06 01:16:50;;;;;;;11.37;10.50;;;1.50;1.00;;;;;;5072070;28;20212;-64
2023/04/06 01:19:15;;;;;;;11.00;10.13;;;1.50;1.00;;;;;;5071657;28;20170;-64
2023/04/06 01:21:41;;;;;;;10.53;9.73;;;1.40;99.90;;;;;;5071992;28;20174;-64
2023/04/06 01:24:08;;;;;;;11.57;10.47;;;1.40;1.00;;;;;;5071902;28;20613;-63
2023/04/06 01:26:35;;;;;;;10.57;9.70;;;1.40;99.90;;;;;;5071285;28;20190;-64
2023/04/06 01:29:02;;;;;;;10.97;10.10;;;1.40;99.90;;;;;;5071934;28;20174;-64
2023/04/06 01:31:28;;;;;;;11.43;10.50;;;1.30;99.90;;;;;;5071174;28;20182;-64
2023/04/06 01:33:53;;;;;;;12.83;11.60;;;1.30;1.00;;;;;;5071974;28;20364;-64
2023/04/06 01:36:19;;;;;;;10.77;9.87;;;1.20;1.00;;;;;;5071249;28;20292;-64
2023/04/06 01:38:45;;;;;;;11.87;10.93;;;1.20;56.20;;;;;;5071831;28;20178;-64
2023/04/06 01:41:11;;;;;;;11.97;10.97;;;1.20;67.60;;;;;;5071380;28;20189;-64
2023/04/06 01:43:36;;;;;;;14.17;12.97;;;1.20;99.90;;;;;;5071608;28;20174;-64
2023/04/06 01:46:02;;;;;;;12.17;10.87;;;1.20;99.90;;;;;;5071198;28;20248;-64
2023/04/06 01:48:28;;;;;;;14.03;10.93;;;1.20;1.00;;;;;;5054324;28;20162;-64
2023/04/06 01:50:54;;;;;;;10.93;10.13;;;1.20;1.00;;;;;;5051197;28;20167;-64
2023/04/06 01:53:20;;;;;;;11.47;10.47;;;1.20;1.00;;;;;;5051398;28;20202;-64
2023/04/06 01:55:45;;;;;;;16.47;10.80;;;1.20;1.00;;;;;;5059992;28;20229;-64
2023/04/06 01:58:12;;;;;;;10.33;9.50;;;1.10;99.90;;;;;;5070663;28;20174;-64
2023/04/06 02:00:38;;;;;;;11.87;10.73;;;1.10;99.90;;;;;;5070005;28;20182;-64
2023/04/06 02:03:03;;;;;;;11.23;10.33;;;1.10;99.90;;;;;;5070607;28;20583;-64
2023/04/06 02:05:30;;;;;;;11.03;10.23;;;1.10;99.90;;;;;;5070641;28;20202;-65
2023/04/06 02:07:56;;;;;;;10.67;9.93;;;1.10;99.90;;;;;;5071230;28;20260;-64
2023/04/06 02:10:22;;;;;;;11.63;10.60;;;1.10;99.90;;;;;;5070490;28;20264;-64
2023/04/06 02:12:48;;;;;;;10.37;9.67;;;1.10;99.90;;;;;;5071203;28;20174;-64
2023/04/06 02:15:14;;;;;;;12.80;11.90;;;1.10;31.80;;;;;;5069955;28;20661;-64
2023/04/06 02:17:40;;;;;;;12.37;11.17;;;1.10;12.30;;;;;;5071228;28;20660;-64
2023/04/06 02:20:07;;;;;;;10.80;9.87;;;1.10;1.00;;;;;;5070730;28;20170;-64
2023/04/06 02:22:33;;;;;;;10.87;9.10;;;1.10;1.00;;;;;;5071067;28;20548;-64
2023/04/06 02:24:58;;;;;;;10.37;9.57;;;1.10;99.90;;;;;;5071071;28;20210;-64
2023/04/06 02:27:24;;;;;;;10.40;9.40;;;1.10;1.00;;;;;;5070892;28;20214;-64
2023/04/06 02:29:50;;;;;;;11.33;10.33;;;1.10;1.00;;;;;;5070763;28;20227;-64
2023/04/06 02:32:15;;;;;;;22.33;11.43;;;1.10;1.00;;;;;;5071078;28;20249;-64
2023/04/06 02:34:41;;;;;;;12.27;10.73;;;1.10;99.90;;;;;;5070881;28;20281;-63
2023/04/06 02:37:06;;;;;;;11.87;10.73;;;1.00;99.90;;;;;;5071192;28;20246;-64
2023/04/06 02:39:32;;;;;;;10.83;10.03;;;0.90;1.00;;;;;;5070424;28;20193;-64
2023/04/06 02:41:57;;;;;;;14.50;10.13;;;0.90;99.90;;;;;;5071185;28;20174;-64
2023/04/06 02:44:23;;;;;;;11.67;10.57;;;0.90;99.90;;;;;;5069070;28;20201;-64
2023/04/06 02:46:49;;;;;;;11.20;10.30;;;0.90;99.90;;;;;;5071013;28;20263;-64
2023/04/06 02:49:15;;;;;;;11.37;10.03;;;0.90;99.90;;;;;;5068912;28;20194;-64
2023/04/06 02:51:40;;;;;;;13.17;11.87;;;0.80;99.90;;;;;;5070835;28;20566;-64
2023/04/06 02:54:06;;;;;;;10.30;9.50;;;0.80;99.90;;;;;;5070709;28;20181;-64
2023/04/06 02:56:31;;;;;;;11.40;10.50;;;0.80;99.90;;;;;;5070596;28;20267;-64
2023/04/06 02:58:57;;;;;;;10.00;9.10;;;0.80;1.00;;;;;;5069777;28;20257;-64
2023/04/06 03:01:22;;;;;;;10.53;9.23;;;0.80;1.00;;;;;;5070327;28;20170;-64
2023/04/06 03:03:48;;;;;;;11.97;11.07;;;0.80;1.00;;;;;;5070709;28;20218;-63
2023/04/06 03:06:14;;;;;;;11.07;10.27;;;0.70;1.00;;;;;;5072280;28;20186;-64
2023/04/06 03:08:39;;;;;;;9.80;8.90;;;0.70;99.90;;;;;;5073880;28;20174;-64
2023/04/06 03:11:05;;;;;;;11.10;10.03;;;0.70;99.90;;;;;;5073985;28;20565;-63
2023/04/06 03:13:30;;;;;;;13.23;8.60;;;0.70;99.90;;;;;;5074176;28;20185;-64
2023/04/06 03:15:56;;;;;;;9.80;8.83;;;0.60;99.90;;;;;;5074327;28;20205;-63
2023/04/06 03:18:23;;;;;;;10.60;8.50;;;0.60;99.90;;;;;;5073892;28;20201;-64
2023/04/06 03:20:49;;;;;;;12.47;9.43;;;0.60;99.90;;;;;;5073953;28;20236;-64
2023/04/06 03:23:15;;;;;;;10.23;9.33;;;0.60;99.90;;;;;;5074030;28;20665;-63
2023/04/06 03:25:40;;;;;;;10.23;9.23;;;0.60;99.90;;;;;;5074075;28;20202;-64
2023/04/06 03:28:06;;;;;;;8.80;8.10;;;0.60;99.90;;;;;;5074224;28;20628;-63
2023/04/06 03:30:31;;;;;;;10.17;8.13;;;0.60;99.90;;;;;;5073593;28;20174;-64
2023/04/06 03:32:57;;;;;;;10.67;9.60;;;0.60;99.90;;;;;;5073763;28;20653;-64
2023/04/06 03:35:22;;;;;;;10.43;8.47;;;0.60;99.90;;;;;;5073943;28;20177;-64
2023/04/06 03:37:48;;;;;;;9.47;8.63;;;0.60;99.90;;;;;;5073794;28;20536;-64
2023/04/06 03:40:13;;;;;;;9.97;9.27;;;0.50;99.90;;;;;;5073521;28;20171;-64
2023/04/06 03:42:39;;;;;;;11.00;10.07;;;0.60;1.00;;;;;;5073322;28;20663;-63
2023/04/06 03:45:05;;;;;;;10.83;9.90;;;0.50;1.00;;;;;;5071973;28;20210;-64
2023/04/06 03:47:31;;;;;;;10.33;9.33;;;0.50;1.00;;;;;;5072737;28;20190;-64
2023/04/06 03:49:56;;;;;;;10.40;9.70;;;0.60;1.00;;;;;;5072908;28;20228;-64
2023/04/06 03:52:23;;;;;;;10.40;9.60;;;0.50;20.50;;;;;;5073018;28;20671;-64
2023/04/06 03:54:49;;;;;;;10.27;9.20;;;0.50;17.90;;;;;;5073154;28;20174;-64
2023/04/06 03:57:14;;;;;;;9.83;9.03;;;0.50;41.20;;;;;;5072994;28;20663;-64
2023/04/06 03:59:40;;;;;;;8.87;8.27;;;0.40;57.00;;;;;;5072598;28;20178;-64
2023/04/06 04:02:05;;;;;;;10.33;9.20;;;0.50;99.90;;;;;;5073421;28;20537;-64
2023/04/06 04:04:31;;;;;;;10.47;9.57;;;0.50;1.00;;;;;;5071422;28;20273;-64
2023/04/06 04:06:56;;;;;;;10.97;9.83;;;0.50;1.00;;;;;;5073415;28;20539;-64
2023/04/06 04:09:22;;;;;;;9.67;8.70;;;0.40;1.00;;;;;;5072591;28;20193;-64
2023/04/06 04:11:48;;;;;;;11.13;10.10;;;0.40;1.00;;;;;;5073322;28;20175;-64
2023/04/06 04:14:13;;;;;;;10.80;10.00;;;0.40;1.00;;;;;;5072661;28;20223;-64
2023/04/06 04:16:39;;;;;;;10.80;10.00;;;0.40;99.90;;;;;;5072571;28;20209;-64
2023/04/06 04:19:05;;;;;;;11.37;10.27;;;0.40;99.90;;;;;;5072571;28;20247;-64
2023/04/06 04:21:31;;;;;;;10.97;9.97;;;0.50;99.90;;;;;;5072678;28;20232;-64
2023/04/06 04:23:57;;;;;;;11.87;10.87;;;0.50;99.90;;;;;;5073716;28;20202;-65
2023/04/06 04:26:22;;;;;;;10.37;9.57;;;0.50;99.90;;;;;;5072843;28;20198;-64
2023/04/06 04:28:48;;;;;;;10.37;9.63;;;0.50;99.90;;;;;;5073299;28;20253;-64
2023/04/06 04:31:14;;;;;;;11.77;9.83;;;0.50;27.00;;;;;;5072429;28;20186;-64
2023/04/06 04:33:40;;;;;;;11.03;10.03;;;0.40;1.00;;;;;;5073104;28;20177;-65
2023/04/06 04:36:05;;;;;;;10.97;9.93;;;0.40;57.50;;;;;;5072732;28;20636;-65
2023/04/06 04:38:31;;;;;;;11.57;10.47;;;0.40;29.00;;;;;;5072557;28;20591;-64
2023/04/06 04:40:56;;;;;;;11.47;10.37;;;0.40;90.00;;;;;;5072059;28;20170;-65
2023/04/06 04:43:22;;;;;;;9.60;8.97;;;0.40;9.40;;;;;;5072703;28;20633;-65
2023/04/06 04:45:47;;;;;;;10.57;9.00;;;0.40;99.90;;;;;;5072314;28;20214;-65
2023/04/06 04:48:13;;;;;;;12.33;9.83;;;0.40;99.90;;;;;;5072674;28;20619;-64
2023/04/06 04:50:39;;;;;;;10.23;9.47;;;0.40;99.90;;;;;;5071909;28;20249;-64
2023/04/06 04:53:07;;;;;;;9.47;8.77;;;0.40;99.90;;;;;;5072560;28;20186;-64
2023/04/06 04:55:33;;;;;;;10.20;9.40;;;0.40;99.90;;;;;;5070715;28;20651;-65
2023/04/06 04:57:58;;;;;;;11.40;9.77;;;0.40;99.90;;;;;;5072566;28;20183;-65
2023/04/06 05:00:24;;;;;;;10.30;9.30;;;0.50;99.90;;;;;;5071657;28;20678;-65
2023/04/06 05:02:49;;;;;;;10.63;8.53;;;0.50;99.90;;;;;;5072145;28;20174;-65
2023/04/06 05:05:15;;;;;;;9.90;9.10;;;0.50;99.90;;;;;;5071896;28;20206;-64
2023/04/06 05:07:41;;;;;;;11.10;10.00;;;0.50;99.90;;;;;;5071977;28;20190;-65
2023/04/06 05:10:07;;;;;;;11.27;10.20;;;0.50;99.90;;;;;;5071829;28;20189;-65
2023/04/06 05:12:32;;;;;;;11.63;10.50;;;0.60;99.90;;;;;;5072020;28;20644;-65
2023/04/06 05:14:58;;;;;;;12.60;10.80;;;0.60;99.90;;;;;;5072112;28;20193;-64
2023/04/06 05:17:24;;;;;;;11.40;10.47;;;0.70;99.90;;;;;;5071870;28;20194;-64
2023/04/06 05:19:49;;;;;;;9.87;9.07;;;0.70;99.90;;;;;;5071617;28;20647;-65
2023/04/06 05:22:17;;;;;;;11.20;10.20;;;0.80;99.90;;;;;;5071853;28;20186;-65
2023/04/06 05:24:43;;;;;;;10.93;10.00;;;0.90;99.90;;;;;;5071384;28;20325;-64
2023/04/06 05:27:09;;;;;;;10.47;9.70;;;1.00;99.90;;;;;;5071810;28;20190;-65
2023/04/06 05:29:34;;;;;;;9.57;8.77;;;1.10;99.90;;;;;;5069956;28;20182;-65
2023/04/06 05:32:00;;;;;;;11.47;10.73;;;1.20;99.90;;;;;;5071904;28;20539;-65
2023/04/06 05:34:26;;;;;;;10.93;10.13;;;1.30;99.90;;;;;;5071422;28;20182;-65
2023/04/06 05:36:51;;;;;;;11.33;10.23;;;1.40;1.00;;;;;;5071689;28;20205;-65
2023/04/06 05:39:17;;;;;;;10.97;10.07;;;1.50;1.00;;;;;;5071070;28;20185;-65
2023/04/06 05:41:43;;;;;;;13.20;11.40;;;1.60;38.70;;;;;;5071683;28;20231;-65
2023/04/06 05:44:08;;;;;;;10.17;9.47;;;1.70;84.20;;;;;;5071350;28;20212;-65
2023/04/06 05:46:34;;;;;;;10.57;9.77;;;1.70;1.00;;;;;;5071364;28;20197;-65
2023/04/06 05:49:00;;;;;;;11.70;10.60;;;1.80;99.90;;;;;;5070313;28;20170;-65
2023/04/06 05:51:26;;;;;;;11.37;10.37;;;1.90;1.00;;;;;;5063654;28;20175;-65
2023/04/06 05:53:52;;;;;;;12.27;10.67;;;1.90;99.90;;;;;;5051581;28;20240;-64
2023/04/06 05:56:17;;;;;;;11.13;10.07;;;2.00;99.90;;;;;;5052433;28;20658;-65
2023/04/06 05:58:43;;;;;;;9.90;8.93;;;2.10;99.90;;;;;;5071232;28;20170;-65
2023/04/06 06:01:09;;;;;;;10.20;9.17;;;2.20;1.00;;;;;;5069320;28;20648;-65
2023/04/06 06:03:35;;;;;;;10.10;9.17;;;2.30;1.00;;;;;;5069428;28;20689;-64
2023/04/06 06:06:04;;;;;;;9.90;9.10;;;2.40;1.00;;;;;;5071366;28;20408;-65
2023/04/06 06:08:30;;;;;;;12.33;10.23;;;2.40;99.90;;;;;;5070962;28;20196;-65
2023/04/06 06:10:56;;;;;;;10.17;9.10;;;2.60;99.90;;;;;;5070739;28;20265;-64
2023/04/06 06:13:23;;;;;;;10.80;9.80;;;2.70;99.90;;;;;;5071246;28;20557;-65
2023/04/06 06:15:49;;;;;;;11.77;10.57;;;2.80;99.90;;;;;;5073573;28;20300;-65
2023/04/06 06:18:14;;;;;;;9.83;8.87;;;3.00;83.60;;;;;;5070940;28;20207;-65
2023/04/06 06:20:40;;;;;;;11.33;10.37;;;3.10;24.50;;;;;;5071686;28;20166;-65
2023/04/06 06:23:06;;;;;;;12.17;11.07;;;3.40;93.50;;;;;;5071013;28;20208;-64
2023/04/06 06:25:32;;;;;;;15.67;11.30;;;3.80;1.00;;;;;;5070921;28;20549;-65
2023/04/06 06:27:59;;;;;;;11.63;10.67;;;4.30;1.00;;;;;;5070936;28;20182;-65
2023/04/06 06:30:24;;;;;;;10.47;9.07;;;4.80;1.00;;;;;;5070266;28;20182;-65
2023/04/06 06:32:51;;;;;;;11.13;8.50;;;5.40;1.00;;;;;;5069604;28;20590;-64
2023/04/06 06:35:16;;;;;;;9.87;8.90;;;5.90;1.00;;;;;;5070712;28;20270;-65
2023/04/06 06:37:42;;;;;;;10.20;9.30;;;6.30;99.90;;;;;;5071031;28;20300;-65
2023/04/06 06:40:10;;;;;;;9.07;8.17;;;6.80;99.90;;;;;;5070619;28;20185;-65
2023/04/06 06:42:35;;;;;;;7.80;7.10;;;7.30;99.90;;;;;;5072780;28;20549;-64
2023/04/06 06:45:01;;;;;;;7.93;7.23;;;7.70;99.90;;;;;;5073258;28;20198;-65
2023/04/06 06:47:27;;;;;;;9.43;7.07;;;8.00;99.90;;;;;;5074627;28;20244;-64
2023/04/06 06:49:52;;;;;;;8.30;7.60;;;8.20;99.90;;;;;;5074278;28;20668;-63
2023/04/06 06:52:18;;;;;;;9.67;7.80;;;8.50;99.90;;;;;;5074633;28;20562;-64
2023/04/06 06:54:44;;;;;;;8.80;6.70;;;8.70;99.90;;;;;;5074205;28;20190;-64
2023/04/06 06:57:09;;;;;;;7.70;7.00;;;9.00;99.90;;;;;;5074726;28;20631;-64
2023/04/06 06:59:35;;;;;;;7.27;6.67;;;9.20;99.90;;;;;;5074000;28;20189;-64
2023/04/06 07:02:01;;;;;;;7.47;6.73;;;9.50;99.90;;;;;;5074111;28;20180;-64
2023/04/06 07:04:26;;;;;;;6.93;6.37;;;10.00;99.90;;;;;;5070228;28;20706;-64
2023/04/06 07:06:52;;;;;;;7.83;7.17;;;10.50;99.90;;;;;;5074078;28;20460;-66
2023/04/06 07:09:18;;;;;;;7.53;6.83;;;10.80;99.90;;;;;;5073501;28;20659;-66
2023/04/06 07:11:44;;;;;;;7.43;6.83;;;11.00;99.90;;;;;;5074707;28;20173;-66
2023/04/06 07:14:11;;;;;;;7.67;6.37;;;11.40;99.90;;;;;;5073949;28;20268;-66
2023/04/06 07:16:37;;;;;;;7.00;6.30;;;11.30;99.90;;;;;;5072819;28;20206;-65
2023/04/06 07:19:02;;;;;;;8.53;7.67;;;11.10;99.90;;;;;;5073974;28;20225;-65
2023/04/06 07:21:28;;;;;;;7.47;6.70;;;10.70;99.90;;;;;;5071906;28;20293;-65
2023/04/06 07:23:53;;;;;;;7.47;6.70;;;10.40;99.90;;;;;;5073708;28;20269;-63
2023/04/06 07:26:19;;;;;;;9.07;7.07;;;10.10;99.90;;;;;;5073888;28;20194;-63
2023/04/06 07:28:45;;;;;;;8.47;7.77;;;10.00;99.90;;;;;;5072719;28;20257;-63
2023/04/06 07:31:11;;;;;;;7.13;6.53;;;9.90;99.90;;;;;;5073152;28;20618;-65
2023/04/06 07:33:36;;;;;;;7.63;7.03;;;9.90;99.90;;;;;;5073757;28;20171;-65
2023/04/06 07:36:02;;;;;;;8.03;7.37;;;9.90;99.90;;;;;;5073507;28;20695;-63
2023/04/06 07:38:27;;;;;;;8.10;7.40;;;10.10;99.90;;;;;;5073770;28;20595;-66
2023/04/06 07:40:53;;;;;;;7.73;7.13;;;10.10;99.90;;;;;;5073181;28;20167;-64
2023/04/06 07:43:19;;;;;;;8.87;8.03;;;10.10;99.90;;;;;;5073621;28;20189;-65
2023/04/06 07:45:45;;;;;;;8.53;7.83;;;10.00;99.90;;;;;;5073085;28;20210;-64
2023/04/06 07:48:10;;;;;;;8.53;7.83;;;10.00;99.90;;;;;;5072830;28;20166;-64
2023/04/06 07:50:36;;;;;;;8.70;8.00;;;10.00;99.90;;;;;;5072150;28;20166;-64
2023/04/06 07:53:02;;;;;;;9.30;7.20;;;10.20;99.90;;;;;;5072813;28;20166;-64
2023/04/06 07:55:28;;;;;;;7.93;7.23;;;10.60;99.90;;;;;;5073272;28;20252;-64
2023/04/06 07:57:53;;;;;;;12.30;6.33;;;11.10;99.90;;;;;;5071524;28;20228;-64
2023/04/06 08:00:19;;;;;;;9.70;7.07;;;11.50;99.90;;;;;;5072297;28;20270;-64
2023/04/06 08:02:45;;;;;;;9.03;6.73;;;12.00;99.90;;;;;;5073586;28;20182;-64
2023/04/06 08:05:11;;;;;;;9.37;7.00;;;12.40;99.90;;;;;;5071749;28;20555;-64
2023/04/06 08:07:36;;;;;;;7.53;6.73;;;12.80;99.90;;;;;;5073245;28;20693;-63
2023/04/06 08:10:02;;;;;;;11.43;6.83;;;13.10;99.90;;;;;;5072732;28;20548;-64
2023/04/06 08:12:28;;;;;;;7.10;6.47;;;13.20;99.90;;;;;;5073014;28;20174;-65
2023/04/06 08:14:53;;;;;;;7.63;6.70;;;13.10;99.90;;;;;;5067666;28;20638;-64
2023/04/06 08:17:19;;;;;;;7.80;6.97;;;13.10;99.90;;;;;;5073079;28;20239;-64
2023/04/06 08:19:45;;;;;;;7.40;6.43;;;13.10;99.90;;;;;;5072607;28;20651;-64
2023/04/06 08:22:11;;;;;;;8.80;7.37;;;13.10;99.90;;;;;;5072972;28;20213;-64
2023/04/06 08:24:37;;;;;;;7.70;6.90;;;13.20;99.90;;;;;;5072816;28;20228;-63
2023/04/06 08:27:02;;;;;;;11.63;6.57;;;13.30;99.90;;;;;;5072513;28;20723;-64
2023/04/06 08:29:28;;;;;;;9.23;6.93;;;13.50;99.90;;;;;;5072617;28;20162;-64
2023/04/06 08:31:54;;;;;;;10.37;7.57;;;13.80;99.90;;;;;;5072448;28;20213;-65
2023/04/06 08:34:20;;;;;;;7.60;6.30;;;14.00;99.90;;;;;;5072718;28;20178;-64
2023/04/06 08:36:46;;;;;;;6.90;6.17;;;14.20;99.90;;;;;;5072315;28;20197;-65
2023/04/06 08:39:12;;;;;;;8.37;6.33;;;14.50;99.90;;;;;;5070922;28;20651;-64
2023/04/06 08:41:37;;;;;;;8.30;7.00;;;14.60;99.90;;;;;;5072255;28;20182;-64
2023/04/06 08:44:04;;;;;;;7.07;6.37;;;14.60;99.90;;;;;;5072384;28;20201;-64
2023/04/06 08:46:30;;;;;;;11.60;7.63;;;14.60;99.90;;;;;;5072023;28;20235;-64
2023/04/06 08:48:57;;;;;;;8.90;7.30;;;14.50;99.90;;;;;;5072143;28;20181;-64
2023/04/06 08:51:27;;;;;;;8.10;6.70;;;14.50;99.90;;;;;;5071990;28;20671;-64
2023/04/06 08:53:54;;;;;;;8.00;7.07;;;14.60;99.90;;;;;;5072280;28;20209;-64
2023/04/06 08:56:25;;;;;;;6.77;6.17;;;14.60;99.90;;;;;;5072148;28;20733;-64
2023/04/06 08:58:52;;;;;;;9.40;7.90;;;14.70;99.90;;;;;;5069558;28;20173;-64
2023/04/06 09:01:21;;;;;;;7.93;7.23;;;14.70;99.90;;;;;;5056850;28;20647;-63
2023/04/06 09:03:49;;;;;;;7.40;6.70;;;15.00;99.90;;;;;;5071820;28;20181;-64
2023/04/06 09:06:15;;;;;;;8.13;7.20;;;14.90;99.90;;;;;;5072190;28;20190;-64
2023/04/06 09:08:41;;;;;;;13.67;7.97;;;14.90;99.90;;;;;;5072116;28;20162;-64
2023/04/06 09:11:07;;;;;;;12.70;8.00;;;14.80;99.90;;;;;;5071550;28;20182;-64
2023/04/06 09:13:50;;;;;;;7.77;6.97;;;14.70;99.90;;;;;;5071856;28;20170;-64
2023/04/06 09:16:17;;;;;;;11.37;6.93;;;14.50;99.90;;;;;;5070991;28;20197;-64
2023/04/06 09:18:42;;;;;;;7.60;6.93;;;14.50;99.90;;;;;;5070415;28;20178;-65
2023/04/06 09:21:10;;;;;;;10.23;8.40;;;14.70;99.90;;;;;;5071521;28;20166;-64
2023/04/06 09:23:36;;;;;;;8.50;7.60;;;14.80;99.90;;;;;;5072200;28;20190;-64
2023/04/06 09:26:09;;;;;;;8.73;7.53;;;14.90;99.90;;;;;;5071288;28;20202;-66
2023/04/06 09:29:03;;;;;;;8.40;7.37;;;15.00;99.90;;;;;;5071395;28;20217;-66
2023/04/06 09:31:32;;;;;;;9.40;7.27;;;15.30;99.90;;;;;;5070310;28;20174;-66
2023/04/06 09:34:00;;;;;;;7.10;6.40;;;15.50;99.90;;;;;;5071781;28;20174;-66
2023/04/06 09:36:32;;;;;;;10.30;7.30;;;15.80;99.90;;;;;;5071412;28;20193;-66
2023/04/06 09:39:00;;;;;;;9.40;6.93;;;16.00;99.90;;;;;;5050734;28;20255;-66
2023/04/06 09:41:33;;;;;;;7.70;7.00;;;16.10;99.90;;;;;;5051088;28;20170;-66
2023/04/06 09:44:09;;;;;;;11.07;7.30;;;16.20;99.90;;;;;;5071290;28;20251;-66
2023/04/06 09:46:39;;;;;;;11.10;7.33;;;16.40;99.90;;;;;;5071195;28;20201;-65
2023/04/06 09:49:06;;;;;;;7.93;7.20;;;16.60;99.90;;;;;;5071136;28;20162;-65
2023/04/06 09:51:47;;;;;;;12.20;8.20;;;16.80;99.90;;;;;;5070581;28;20170;-66
2023/04/06 09:54:18;;;;;;;9.60;8.40;;;16.80;99.90;;;;;;5086150;28;20174;-66
2023/04/06 09:56:47;;;;;;;10.37;7.73;;;16.80;99.90;;;;;;5071378;28;20224;-65
2023/04/06 09:59:39;;;;;;;10.67;7.63;;;16.90;99.90;;;;;;5071290;28;20162;-66
2023/04/06 10:02:08;;;;;;;8.93;7.90;;;17.10;99.90;;;;;;5051238;28;20209;-66
2023/04/06 10:04:47;;;;;;;11.90;8.57;;;17.00;99.90;;;;;;5055949;28;20691;-66
2023/04/06 10:07:15;;;;;;;9.50;7.27;;;16.90;99.90;;;;;;5071393;28;20216;-66
2023/04/06 10:09:42;;;;;;;11.23;7.77;;;16.80;99.90;;;;;;5070935;28;20197;-66
2023/04/06 10:12:09;;;;;;;9.50;7.70;;;16.80;99.90;;;;;;5071279;28;20575;-66
2023/04/06 10:14:38;;;;;;;10.23;7.77;;;16.80;99.90;;;;;;5070948;28;20182;-66
2023/04/06 10:17:04;;;;;;;10.90;8.00;;;16.90;99.90;;;;;;5074356;28;20200;-66
2023/04/06 10:19:44;;;;;;;10.17;7.33;;;16.80;99.90;;;;;;5074722;28;20522;-66
2023/04/06 10:22:18;;;;;;;10.30;7.50;;;16.70;99.90;;;;;;5075481;28;20166;-66
2023/04/06 10:24:43;;;;;;;12.80;8.97;;;16.60;99.90;;;;;;5075305;28;20193;-65
2023/04/06 10:27:10;;;;;;;12.00;7.77;;;16.50;99.90;;;;;;5075004;28;20777;-65
2023/04/06 10:29:48;;;;;;;13.50;7.70;;;16.40;99.90;;;;;;5074583;28;20257;-65
2023/04/06 10:32:14;;;;;;;10.70;7.47;;;16.40;99.90;;;;;;5075120;28;20177;-65
2023/04/06 10:34:39;;;;;;;9.60;7.37;;;16.50;99.90;;;;;;5074954;28;20542;-66
2023/04/06 10:37:15;;;;;;;13.33;7.73;;;16.60;99.90;;;;;;5075113;28;20211;-66
2023/04/06 10:40:17;;;;;;;14.13;7.87;;;16.60;99.90;;;;;;5074778;28;20169;-65
2023/04/06 10:42:43;;;;;;;10.63;7.03;;;16.50;99.90;;;;;;5074363;28;20586;-64
2023/04/06 10:45:22;;;;;;;11.30;7.37;;;16.50;99.90;;;;;;5074950;28;20197;-63
2023/04/06 10:47:48;;;;;;;11.80;7.10;;;16.50;99.90;;;;;;5074588;28;20166;-64
2023/04/06 10:50:16;;;;;;;11.20;7.27;;;16.50;99.90;;;;;;5072973;28;20648;-64
2023/04/06 10:52:43;;;;;;;13.37;7.33;;;16.70;99.90;;;;;;5073150;28;20174;-63
2023/04/06 10:55:12;;;;;;;10.97;7.43;;;16.80;99.90;;;;;;5074288;28;20181;-64
2023/04/06 10:57:38;;;;;;;10.03;7.53;;;17.00;99.90;;;;;;5073829;28;20197;-64
2023/04/06 11:00:07;;;;;;;10.97;7.73;;;17.20;99.90;;;;;;5074353;28;20364;-64
2023/04/06 11:02:34;;;;;;;13.20;8.10;;;17.40;99.90;;;;;;5074507;28;20239;-64
2023/04/06 11:05:01;;;;;;;9.57;7.13;;;17.60;99.90;;;;;;5074507;28;20202;-64
2023/04/06 11:07:29;;;;;;;13.57;8.53;;;17.80;99.90;;;;;;5073449;28;20217;-64
2023/04/06 11:09:54;;;;;;;8.60;7.50;;;17.70;99.90;;;;;;5074278;28;20178;-64
2023/04/06 11:12:25;;;;;;;9.50;7.97;;;17.90;99.90;;;;;;5074481;28;20173;-64
2023/04/06 11:15:05;;;;;;;11.50;7.07;;;18.00;99.90;;;;;;5074399;28;20170;-64
2023/04/06 11:17:36;;;;;;;12.63;7.90;;;18.10;99.90;;;;;;5074364;28;20186;-63
2023/04/06 11:20:04;;;;;;;11.57;8.50;;;18.10;99.90;;;;;;5074112;28;20173;-63
2023/04/06 11:22:30;;;;;;;11.60;8.40;;;17.70;99.90;;;;;;5074059;28;20675;-63
2023/04/06 11:25:06;;;;;;;10.83;7.77;;;17.50;99.90;;;;;;5073830;28;20209;-64
2023/04/06 11:27:33;;;;;;;11.67;9.00;;;17.10;99.90;;;;;;5073667;28;20695;-64
2023/04/06 11:30:00;;;;;;;9.57;6.87;;;16.80;99.90;;;;;;5071233;28;20267;-64
2023/04/06 11:32:26;;;;;;;9.33;6.60;;;16.70;99.90;;;;;;5074027;28;20628;-64
2023/04/06 11:34:51;;;;;;;11.57;8.00;;;16.60;99.90;;;;;;5071960;28;20178;-63
2023/04/06 11:37:17;;;;;;;11.13;7.30;;;16.80;99.90;;;;;;5073378;28;20746;-64
2023/04/06 11:39:53;;;;;;;10.43;8.17;;;16.80;99.90;;;;;;5073686;28;20167;-64
2023/04/06 11:42:29;;;;;;;12.23;8.03;;;17.10;99.90;;;;;;5053690;28;20644;-64
2023/04/06 11:44:57;;;;;;;13.47;7.63;;;17.30;99.90;;;;;;5053466;28;20198;-64
2023/04/06 11:47:56;;;;;;;8.97;7.00;;;17.50;99.90;;;;;;5053622;28;20183;-64
2023/04/06 11:50:21;;;;;;;9.37;6.73;;;17.30;99.90;;;;;;5070465;28;20707;-63
2023/04/06 11:52:58;;;;;;;12.93;7.90;;;17.20;99.90;;;;;;5073667;28;20304;-64
2023/04/06 11:55:24;;;;;;;8.90;7.20;;;17.00;99.90;;;;;;5073583;28;20592;-64
2023/04/06 11:57:51;;;;;;;9.03;7.37;;;17.00;99.90;;;;;;5074316;28;20174;-63
2023/04/06 12:00:17;;;;;;;14.83;7.07;;;17.10;99.90;;;;;;5072025;28;20171;-64
2023/04/06 12:02:46;;;;;;;11.10;7.60;;;17.30;99.90;;;;;;5073599;28;20174;-63
2023/04/06 12:05:12;;;;;;;10.60;7.73;;;17.50;99.90;;;;;;5072989;28;20255;-63
2023/04/06 12:07:37;;;;;;;11.83;6.80;;;17.50;99.90;;;;;;5073307;28;20190;-63
2023/04/06 12:10:04;;;;;;;15.87;8.47;;;17.60;99.90;;;;;;5073043;28;20186;-64
2023/04/06 12:12:29;;;;;;;9.30;6.50;;;17.50;99.90;;;;;;5073204;28;20182;-63
2023/04/06 12:14:56;;;;;;;10.10;6.90;;;17.50;99.90;;;;;;5072982;28;20581;-64
2023/04/06 12:17:22;;;;;;;12.03;7.77;;;17.40;99.90;;;;;;5072753;28;20251;-64
2023/04/06 12:19:47;;;;;;;10.67;6.93;;;17.20;99.90;;;;;;5072897;28;20181;-63
2023/04/06 12:22:14;;;;;;;10.63;7.33;;;17.00;99.90;;;;;;5072812;28;20216;-64
2023/04/06 12:24:39;;;;;;;9.20;6.87;;;16.80;99.90;;;;;;5072122;28;20209;-63
2023/04/06 12:27:05;;;;;;;10.13;6.93;;;16.60;99.90;;;;;;5072689;28;20194;-63
2023/04/06 12:29:30;;;;;;;13.30;8.20;;;16.40;99.90;;;;;;5072478;28;20166;-63
2023/04/06 12:31:56;;;;;;;11.23;7.33;;;16.30;99.90;;;;;;5072474;28;20177;-63
2023/04/06 12:34:22;;;;;;;11.27;6.77;;;16.20;99.90;;;;;;5062727;28;20696;-63
2023/04/06 12:36:47;;;;;;;10.03;7.53;;;16.10;99.90;;;;;;5055613;28;20245;-64
2023/04/06 12:39:13;;;;;;;7.17;6.33;;;16.00;99.90;;;;;;5071426;28;20283;-64
2023/04/06 12:41:41;;;;;;;8.73;6.50;;;15.90;99.90;;;;;;5072532;28;20189;-64
2023/04/06 12:44:07;;;;;;;7.93;7.10;;;16.00;99.90;;;;;;5072731;28;20537;-63